Battle Ground, Indiana
Current Conditions -  °F | °C
As of 4:54 PM on Wednesday 28 Jan 2015 (Local Time) from KLAF Reporting Station
Clear Clear  
Wind Chill: 27°   Ceiling: Unl
Heat Index: 36°   Visibility: 10mi
Dew Point: 17°   Wind: 14mph
Humidity: 46%   Direction: 160°SSE
Pressure: 30.14"   Gusts: 22mph
Location:  40.51°N, 86.84°W
Report Text: KLAF 282154Z 16012G19KT 10SM CLR 02/M08 A3014 RMK AO2 SLP214 T00221083
Loading
Personal Weather Stations






























Interactive Weather Map New forecast layout! Learn more

10-Day Weather Forecast

Advertisements
Track Severe Weather on mobile